createdAt,value
2018-09-03T00:01:11.154Z,100375.66
2018-09-03T00:03:40.212Z,100385.41
2018-09-03T00:06:09.172Z,100399.61
2018-09-03T00:08:38.244Z,100398.56
2018-09-03T00:11:07.209Z,100400.70
2018-09-03T00:13:36.222Z,100401.34
2018-09-03T00:16:05.380Z,100399.13
2018-09-03T00:18:34.323Z,100387.47
2018-09-03T00:21:03.408Z,100390.43
2018-09-03T00:23:32.477Z,100389.31
2018-09-03T00:26:01.481Z,100385.19
2018-09-03T00:28:30.488Z,100380.11
2018-09-03T00:31:05.114Z,100374.21
2018-09-03T00:33:39.374Z,100365.25
2018-09-03T00:36:13.719Z,100358.00
2018-09-03T00:38:48.234Z,100356.88
2018-09-03T00:41:22.750Z,100360.57
2018-09-03T00:43:57.101Z,100370.03
2018-09-03T00:46:31.593Z,100380.77
2018-09-03T00:49:00.619Z,100385.49
2018-09-03T00:51:29.581Z,100396.07
2018-09-03T00:53:58.681Z,100392.81
2018-09-03T00:56:27.661Z,100387.34
2018-09-03T00:58:56.731Z,100392.97
2018-09-03T01:01:25.901Z,100386.70
2018-09-03T01:03:55.011Z,100393.73
2018-09-03T01:06:23.962Z,100397.39
2018-09-03T01:08:52.892Z,100385.72
2018-09-03T01:11:24.612Z,100378.88
2018-09-03T01:13:54.426Z,100379.70
2018-09-03T01:16:23.521Z,100380.16
2018-09-03T01:18:56.431Z,100391.73
2018-09-03T01:21:26.320Z,100393.25
2018-09-03T01:23:55.618Z,100407.17
2018-09-03T01:26:24.617Z,100395.47
2018-09-03T01:28:53.559Z,100395.23
2018-09-03T01:31:22.704Z,100403.58
2018-09-03T01:33:52.943Z,100401.86
2018-09-03T01:36:22.172Z,100398.86
2018-09-03T01:38:51.128Z,100394.53
2018-09-03T01:41:20.556Z,100390.41
2018-09-03T01:44:53.004Z,100390.11
2018-09-03T01:47:21.984Z,100382.86
2018-09-03T01:49:50.923Z,100377.70
2018-09-03T01:52:19.913Z,100372.90
2018-09-03T01:54:48.892Z,100358.42
2018-09-03T01:57:17.846Z,100345.84
2018-09-03T01:59:47.086Z,100342.91
2018-09-03T02:02:16.081Z,100344.08
2018-09-03T02:04:45.028Z,100338.73
2018-09-03T02:07:14.142Z,100340.35
2018-09-03T02:09:43.127Z,100345.76
2018-09-03T02:12:12.130Z,100344.64
2018-09-03T02:14:42.273Z,100344.41
2018-09-03T02:17:12.449Z,100338.44
2018-09-03T02:19:42.073Z,100336.52
2018-09-03T02:22:11.100Z,100330.09
2018-09-03T02:24:40.074Z,100335.66
2018-09-03T02:27:09.061Z,100329.62
2018-09-03T02:29:38.027Z,100329.39
2018-09-03T02:32:07.084Z,100328.53
2018-09-03T02:34:36.114Z,100335.52
2018-09-03T02:37:05.220Z,100336.57
2018-09-03T02:39:34.168Z,100332.81
2018-09-03T02:42:03.112Z,100321.62
2018-09-03T02:44:32.114Z,100326.73
2018-09-03T02:47:01.181Z,100327.89
2018-09-03T02:49:30.151Z,100329.55
2018-09-03T02:51:59.189Z,100326.84
2018-09-03T02:54:28.182Z,100325.75
2018-09-03T02:56:57.174Z,100330.51
2018-09-03T02:59:26.141Z,100319.43
2018-09-03T03:01:55.101Z,100319.43
2018-09-03T03:04:24.081Z,100317.29
2018-09-03T03:06:53.041Z,100317.63
2018-09-03T03:09:22.139Z,100306.73
2018-09-03T03:11:51.131Z,100307.60
2018-09-03T03:14:20.100Z,100304.41
2018-09-03T03:16:49.049Z,100310.69
2018-09-03T03:19:18.072Z,100301.33
2018-09-03T03:21:47.063Z,100294.45
2018-09-03T03:24:16.035Z,100283.41
2018-09-03T03:26:45.011Z,100284.98
2018-09-03T03:29:14.021Z,100288.81
2018-09-03T03:31:43.031Z,100298.77
2018-09-03T03:34:12.031Z,100294.08
2018-09-03T03:36:41.100Z,100296.70
2018-09-03T03:39:10.225Z,100292.58
2018-09-03T03:44:13.381Z,100285.33
2018-09-03T03:46:42.333Z,100293.44
2018-09-03T03:49:11.333Z,100297.13
2018-09-03T03:51:40.275Z,100290.77
2018-09-03T03:54:09.309Z,100292.38
2018-09-03T03:56:38.347Z,100283.94
2018-09-03T03:59:07.454Z,100279.27
2018-09-03T04:01:36.709Z,100277.91
2018-09-03T04:04:05.902Z,100278.38
2018-09-03T04:06:34.876Z,100281.82
2018-09-03T04:09:04.779Z,100263.89
2018-09-03T04:11:35.325Z,100268.52
2018-09-03T04:14:08.656Z,100263.74
2018-09-03T04:16:37.675Z,100274.56
2018-09-03T04:19:06.670Z,100267.31
2018-09-03T04:21:35.673Z,100284.68
2018-09-03T04:24:05.654Z,100291.29
2018-09-03T04:26:34.628Z,100283.48
2018-09-03T04:29:03.614Z,100299.23
2018-09-03T04:31:32.582Z,100291.44
2018-09-03T04:34:01.670Z,100291.67
2018-09-03T04:36:30.712Z,100287.61
2018-09-03T04:38:59.649Z,100277.66
2018-09-03T04:41:28.637Z,100273.78
2018-09-03T04:43:57.606Z,100271.15
2018-09-03T04:46:26.555Z,100269.38
2018-09-03T04:48:55.562Z,100271.94
2018-09-03T04:51:24.917Z,100269.00
2018-09-03T04:53:56.026Z,100273.44
2018-09-03T04:56:24.990Z,100275.36
2018-09-03T04:58:54.123Z,100281.64
2018-09-03T05:01:23.268Z,100270.20
2018-09-03T05:03:52.251Z,100278.63
2018-09-03T05:06:21.495Z,100273.95
2018-09-03T05:08:50.611Z,100274.44
2018-09-03T05:11:19.693Z,100286.05
2018-09-03T05:13:48.723Z,100285.72
2018-09-03T05:16:17.714Z,100287.56
2018-09-03T05:18:46.858Z,100292.23
2018-09-03T05:21:15.953Z,100290.98
2018-09-03T05:23:44.902Z,100292.56
2018-09-03T05:26:13.879Z,100299.41
2018-09-03T05:28:42.839Z,100293.51
2018-09-03T05:31:11.888Z,100289.86
2018-09-03T05:33:40.842Z,100284.55
2018-09-03T05:36:09.898Z,100278.19
2018-09-03T05:38:38.936Z,100287.63
2018-09-03T05:41:07.920Z,100282.06
2018-09-03T05:43:37.027Z,100288.50
2018-09-03T05:46:06.078Z,100283.88
2018-09-03T05:48:35.032Z,100290.73
2018-09-03T05:51:04.076Z,100297.66
2018-09-03T05:53:33.019Z,100286.77
2018-09-03T05:56:01.965Z,100286.51
2018-09-03T05:58:31.104Z,100291.77
2018-09-03T06:01:00.785Z,100290.41
2018-09-03T06:03:29.738Z,100292.73
2018-09-03T06:05:58.732Z,100286.44
2018-09-03T06:08:27.751Z,100286.52
2018-09-03T06:10:56.792Z,100291.03
2018-09-03T06:13:25.711Z,100290.77
2018-09-03T06:15:54.673Z,100289.20
2018-09-03T06:18:23.652Z,100293.43
2018-09-03T06:20:52.639Z,100298.06
2018-09-03T06:23:21.631Z,100302.44
2018-09-03T06:25:50.579Z,100299.50
2018-09-03T06:28:19.672Z,100295.97
2018-09-03T06:30:48.666Z,100295.57
2018-09-03T06:33:17.663Z,100298.20
2018-09-03T06:35:46.624Z,100303.53
2018-09-03T06:38:15.568Z,100298.11
2018-09-03T06:40:44.590Z,100296.75
2018-09-03T06:43:13.615Z,100295.00
2018-09-03T06:45:42.571Z,100298.92
2018-09-03T06:48:11.535Z,100301.73
2018-09-03T06:50:40.524Z,100303.96
2018-09-03T06:53:09.473Z,100309.86
2018-09-03T06:55:38.732Z,100314.72
2018-09-03T06:58:07.812Z,100315.28
2018-09-03T07:00:36.831Z,100308.95
2018-09-03T07:03:05.811Z,100313.02
2018-09-03T07:05:34.854Z,100315.55
2018-09-03T07:08:03.898Z,100311.39
2018-09-03T07:10:32.897Z,100311.37
2018-09-03T07:13:05.322Z,100307.23
2018-09-03T07:15:34.429Z,100312.98
2018-09-03T07:18:03.730Z,100308.22
2018-09-03T07:20:32.693Z,100308.33
2018-09-03T07:23:01.688Z,100308.75
2018-09-03T07:25:30.651Z,100306.41
2018-09-03T07:27:59.830Z,100300.76
2018-09-03T07:30:28.815Z,100296.00
2018-09-03T07:32:57.787Z,100295.59
2018-09-03T07:35:26.776Z,100293.59
2018-09-03T07:37:55.832Z,100304.09
2018-09-03T07:40:24.804Z,100297.78
2018-09-03T07:42:53.779Z,100294.02
2018-09-03T07:45:22.760Z,100299.17
2018-09-03T07:47:51.682Z,100296.98
2018-09-03T07:50:20.662Z,100291.34
2018-09-03T07:52:49.601Z,100287.54
2018-09-03T07:55:18.650Z,100287.11
2018-09-03T07:57:47.615Z,100271.80
2018-09-03T08:00:16.613Z,100268.72
2018-09-03T08:02:45.723Z,100267.39
2018-09-03T08:05:14.710Z,100274.98
2018-09-03T08:07:43.642Z,100273.91
2018-09-03T08:10:12.606Z,100267.65
2018-09-03T08:12:41.559Z,100268.46
2018-09-03T08:15:10.658Z,100265.06
2018-09-03T08:17:39.667Z,100255.91
2018-09-03T08:20:08.746Z,100251.41
2018-09-03T08:22:37.772Z,100246.48
2018-09-03T08:25:06.755Z,100249.47
2018-09-03T08:27:35.873Z,100242.34
2018-09-03T08:30:05.467Z,100231.78
2018-09-03T08:32:34.453Z,100234.13
2018-09-03T08:35:03.462Z,100244.70
2018-09-03T08:37:32.579Z,100241.90
2018-09-03T08:40:01.571Z,100235.16
2018-09-03T08:42:30.498Z,100250.56
2018-09-03T08:44:59.562Z,100245.19
2018-09-03T08:47:28.544Z,100258.05
2018-09-03T08:49:57.572Z,100249.78
2018-09-03T08:52:26.551Z,100248.89
2018-09-03T08:54:55.628Z,100261.41
2018-09-03T08:57:24.573Z,100259.86
2018-09-03T08:59:53.584Z,100245.59
2018-09-03T09:02:22.567Z,100250.37
2018-09-03T09:04:51.637Z,100250.37
2018-09-03T09:07:20.715Z,100237.25
2018-09-03T09:09:50.634Z,100231.67
2018-09-03T09:12:20.004Z,100227.91
2018-09-03T09:14:49.022Z,100217.18
2018-09-03T09:17:17.990Z,100218.91
2018-09-03T09:19:46.965Z,100224.45
2018-09-03T09:22:15.952Z,100220.31
2018-09-03T09:24:44.959Z,100214.05
2018-09-03T09:27:13.955Z,100222.53
2018-09-03T09:29:42.947Z,100223.02
2018-09-03T09:32:11.900Z,100212.41
2018-09-03T09:34:40.943Z,100210.35
2018-09-03T09:37:09.877Z,100205.43
2018-09-03T09:39:38.816Z,100207.33
2018-09-03T09:42:07.783Z,100202.36
2018-09-03T09:44:36.733Z,100198.88
2018-09-03T09:47:05.726Z,100199.89
2018-09-03T09:49:34.701Z,100196.74
2018-09-03T09:52:03.689Z,100194.11
2018-09-03T09:54:32.667Z,100188.66
2018-09-03T09:57:01.689Z,100187.77
2018-09-03T09:59:30.700Z,100182.28
2018-09-03T10:01:59.653Z,100181.24
2018-09-03T10:04:28.630Z,100171.03
2018-09-03T10:06:57.622Z,100172.88
2018-09-03T10:09:26.680Z,100172.57
2018-09-03T10:11:55.659Z,100176.14
2018-09-03T10:14:24.625Z,100175.61
2018-09-03T10:16:53.675Z,100167.10
2018-09-03T10:19:22.587Z,100164.03
2018-09-03T10:21:51.721Z,100164.52
2018-09-03T10:24:20.678Z,100163.55
2018-09-03T10:26:49.645Z,100160.55
2018-09-03T10:29:18.589Z,100169.66
2018-09-03T10:31:47.648Z,100153.91
2018-09-03T10:34:16.546Z,100150.91
2018-09-03T10:36:45.511Z,100147.50
2018-09-03T10:39:14.458Z,100143.16
2018-09-03T10:41:43.403Z,100142.77
2018-09-03T10:44:12.368Z,100138.63
2018-09-03T10:46:41.344Z,100140.58
2018-09-03T10:49:10.773Z,100141.41
2018-09-03T10:51:39.953Z,100148.48
2018-09-03T10:54:08.899Z,100152.61
2018-09-03T10:56:37.843Z,100149.86
2018-09-03T10:59:06.883Z,100142.56
2018-09-03T11:01:35.862Z,100143.95
2018-09-03T11:04:04.781Z,100141.80
2018-09-03T11:06:33.855Z,100135.07
2018-09-03T11:09:02.877Z,100137.41
2018-09-03T11:11:31.834Z,100138.08
2018-09-03T11:14:00.839Z,100142.31
2018-09-03T11:16:29.916Z,100142.50
2018-09-03T11:18:58.959Z,100139.00
2018-09-03T11:21:28.174Z,100142.66
2018-09-03T11:23:56.987Z,100138.56
2018-09-03T11:26:26.226Z,100129.38
2018-09-03T11:28:55.314Z,100126.39
2018-09-03T11:31:24.656Z,100119.34
2018-09-03T11:33:53.584Z,100116.97
2018-09-03T11:36:22.606Z,100124.75
2018-09-03T11:38:51.642Z,100134.20
2018-09-03T11:41:27.273Z,100128.74
2018-09-03T11:43:56.234Z,100122.59
2018-09-03T11:46:25.206Z,100117.38
2018-09-03T11:48:54.274Z,100110.00
2018-09-03T11:51:23.338Z,100112.93
2018-09-03T11:53:52.306Z,100104.78
2018-09-03T11:56:21.635Z,100105.08
2018-09-03T11:58:50.710Z,100105.52
2018-09-03T12:01:19.665Z,100102.72
2018-09-03T12:03:48.665Z,100105.44
2018-09-03T12:06:17.629Z,100101.42
2018-09-03T12:08:46.574Z,100105.30
2018-09-03T12:11:15.601Z,100100.05
2018-09-03T12:13:44.561Z,100099.74
2018-09-03T12:16:16.727Z,100099.72
2018-09-03T12:18:46.118Z,100095.55
2018-09-03T12:21:15.781Z,100098.80
2018-09-03T12:23:45.050Z,100094.74
2018-09-03T12:26:14.022Z,100101.59
2018-09-03T12:28:43.011Z,100099.54
2018-09-03T12:31:12.040Z,100101.99
2018-09-03T12:33:41.046Z,100104.52
2018-09-03T12:36:10.151Z,100104.41
2018-09-03T12:38:39.770Z,100106.88
2018-09-03T12:41:09.309Z,100104.83
2018-09-03T12:43:38.413Z,100099.52
2018-09-03T12:46:08.240Z,100103.41
2018-09-03T12:48:37.180Z,100110.29
2018-09-03T12:51:06.480Z,100106.75
2018-09-03T12:53:35.547Z,100108.59
2018-09-03T12:56:04.751Z,100105.14
2018-09-03T12:58:33.766Z,100110.38
2018-09-03T13:01:02.716Z,100101.25
2018-09-03T13:03:31.702Z,100108.16
2018-09-03T13:06:00.697Z,100114.03
2018-09-03T13:08:29.669Z,100104.58
2018-09-03T13:10:58.688Z,100097.22
2018-09-03T13:13:27.708Z,100109.25
2018-09-03T13:15:56.769Z,100100.12
2018-09-03T13:18:25.803Z,100101.28
2018-09-03T13:20:54.749Z,100102.63
2018-09-03T13:23:23.775Z,100093.11
2018-09-03T13:25:52.761Z,100093.16
2018-09-03T13:28:21.709Z,100098.84
2018-09-03T13:30:50.765Z,100087.53
2018-09-03T13:33:19.757Z,100077.70
2018-09-03T13:35:48.736Z,100084.39
2018-09-03T13:38:17.720Z,100081.34
2018-09-03T13:40:46.700Z,100080.23
2018-09-03T13:43:15.809Z,100080.61
2018-09-03T13:45:44.790Z,100078.64
2018-09-03T13:48:13.772Z,100075.27
2018-09-03T13:50:42.779Z,100074.14
2018-09-03T13:53:11.815Z,100074.53
2018-09-03T13:55:40.861Z,100067.53
2018-09-03T13:58:09.805Z,100064.31
2018-09-03T14:00:38.788Z,100065.11
2018-09-03T14:03:07.782Z,100065.36
2018-09-03T14:05:36.762Z,100060.42
2018-09-03T14:08:05.730Z,100064.02
2018-09-03T14:10:34.756Z,100057.67
2018-09-03T14:13:03.832Z,100055.62
2018-09-03T14:15:32.943Z,100049.52
2018-09-03T14:18:01.983Z,100051.04
2018-09-03T14:20:30.955Z,100046.15
2018-09-03T14:22:59.935Z,100048.83
2018-09-03T14:25:28.925Z,100052.69
2018-09-03T14:27:58.049Z,100051.27
2018-09-03T14:30:27.041Z,100058.82
2018-09-03T14:32:56.042Z,100061.76
2018-09-03T14:35:25.034Z,100067.03
2018-09-03T14:37:54.026Z,100067.27
2018-09-03T14:40:23.051Z,100067.38
2018-09-03T14:42:52.059Z,100067.91
2018-09-03T14:45:21.069Z,100067.08
2018-09-03T14:47:49.995Z,100074.10
2018-09-03T14:50:19.270Z,100079.16
2018-09-03T14:52:48.246Z,100069.59
2018-09-03T14:55:17.214Z,100078.94
2018-09-03T14:57:46.328Z,100081.37
2018-09-03T15:00:15.252Z,100078.33
2018-09-03T15:02:44.228Z,100074.78
2018-09-03T15:05:13.209Z,100074.84
2018-09-03T15:07:42.254Z,100068.57
2018-09-03T15:10:11.200Z,100075.69
2018-09-03T15:12:40.231Z,100076.11
2018-09-03T15:15:09.413Z,100075.13
2018-09-03T15:17:38.371Z,100075.16
2018-09-03T15:20:07.352Z,100068.77
2018-09-03T15:22:36.589Z,100068.84
2018-09-03T15:25:05.558Z,100064.96
2018-09-03T15:27:34.507Z,100066.03
2018-09-03T15:30:03.493Z,100072.74
2018-09-03T15:32:32.488Z,100076.23
2018-09-03T15:35:01.492Z,100067.29
2018-09-03T15:37:30.503Z,100051.88
2018-09-03T15:39:59.540Z,100057.25
2018-09-03T15:42:28.622Z,100059.80
2018-09-03T15:44:57.891Z,100055.79
2018-09-03T15:47:26.841Z,100053.48
2018-09-03T15:49:56.156Z,100056.25
2018-09-03T15:52:25.133Z,100055.00
2018-09-03T15:54:57.920Z,100054.72
2018-09-03T15:57:27.267Z,100056.89
2018-09-03T15:59:56.244Z,100048.27
2018-09-03T16:02:25.214Z,100038.17
2018-09-03T16:04:54.167Z,100045.92
2018-09-03T16:07:23.195Z,100046.57
2018-09-03T16:09:52.224Z,100046.80
2018-09-03T16:12:21.145Z,100040.39
2018-09-03T16:14:50.116Z,100048.41
2018-09-03T16:17:19.069Z,100041.64
2018-09-03T16:19:48.017Z,100043.98
2018-09-03T16:22:16.994Z,100043.66
2018-09-03T16:24:45.938Z,100039.48
2018-09-03T16:27:15.165Z,100044.06
2018-09-03T16:29:44.054Z,100041.35
2018-09-03T16:32:13.095Z,100034.78
2018-09-03T16:34:42.086Z,100032.55
2018-09-03T16:37:11.050Z,100023.23
2018-09-03T16:39:40.045Z,100026.23
2018-09-03T16:42:09.137Z,100024.61
2018-09-03T16:44:38.743Z,100024.80
2018-09-03T16:47:08.075Z,100028.13
2018-09-03T16:49:37.002Z,100027.31
2018-09-03T16:52:06.055Z,100020.41
2018-09-03T16:54:35.064Z,100022.12
2018-09-03T16:57:04.155Z,100017.60
2018-09-03T16:59:33.131Z,100018.02
2018-09-03T17:02:02.287Z,100019.94
2018-09-03T17:04:31.284Z,100020.66
2018-09-03T17:07:00.246Z,100024.07
2018-09-03T17:09:29.251Z,100021.55
2018-09-03T17:11:58.268Z,100025.77
2018-09-03T17:14:27.349Z,100020.55
2018-09-03T17:16:56.373Z,100019.22
2018-09-03T17:19:25.346Z,100019.10
2018-09-03T17:21:54.320Z,100019.53
2018-09-03T17:24:23.303Z,100019.98
2018-09-03T17:26:52.611Z,100021.36
2018-09-03T17:29:21.758Z,100018.73
2018-09-03T17:31:50.707Z,100018.92
2018-09-03T17:34:19.696Z,100019.66
2018-09-03T17:36:48.733Z,100020.59
2018-09-03T17:39:17.678Z,100030.64
2018-09-03T17:41:46.743Z,100034.02
2018-09-03T17:44:15.728Z,100030.08
2018-09-03T17:46:44.668Z,100033.69
2018-09-03T17:49:13.679Z,100041.55
2018-09-03T17:51:42.646Z,100038.65
2018-09-03T17:54:11.707Z,100042.58
2018-09-03T17:56:40.713Z,100042.52
2018-09-03T17:59:09.685Z,100046.82
2018-09-03T18:01:38.876Z,100044.67
2018-09-03T18:04:07.921Z,100046.53
2018-09-03T18:06:36.897Z,100048.52
2018-09-03T18:09:06.707Z,100050.55
2018-09-03T18:11:35.921Z,100049.67
2018-09-03T18:14:04.923Z,100045.92
2018-09-03T18:16:33.903Z,100047.00
2018-09-03T18:19:02.853Z,100048.64
2018-09-03T18:21:31.936Z,100044.20
2018-09-03T18:24:00.887Z,100039.09
2018-09-03T18:26:29.871Z,100041.87
2018-09-03T18:28:59.101Z,100038.63
2018-09-03T18:31:29.653Z,100038.20
2018-09-03T18:33:58.601Z,100038.03
2018-09-03T18:36:27.564Z,100039.78
2018-09-03T18:38:56.529Z,100038.25
2018-09-03T18:41:25.464Z,100037.95
2018-09-03T18:43:54.425Z,100035.05
2018-09-03T18:46:23.381Z,100036.41
2018-09-03T18:48:52.322Z,100037.61
2018-09-03T18:51:21.447Z,100039.00
2018-09-03T18:53:50.365Z,100042.89
2018-09-03T18:56:19.842Z,100034.03
2018-09-03T18:58:48.779Z,100035.53
2018-09-03T19:01:17.726Z,100038.73
2018-09-03T19:03:46.716Z,100040.16
2018-09-03T19:06:15.753Z,100038.56
2018-09-03T19:08:44.686Z,100038.56
2018-09-03T19:11:13.679Z,100043.94
2018-09-03T19:13:42.607Z,100045.06
2018-09-03T19:16:11.781Z,100042.78
2018-09-03T19:18:40.757Z,100047.55
2018-09-03T19:21:09.756Z,100050.04
2018-09-03T19:23:38.822Z,100039.00
2018-09-03T19:26:07.979Z,100045.23
2018-09-03T19:28:37.118Z,100046.39
2018-09-03T19:31:05.986Z,100043.87
2018-09-03T19:33:35.247Z,100049.12
2018-09-03T19:36:04.267Z,100048.23
2018-09-03T19:38:33.430Z,100048.16
2018-09-03T19:41:02.393Z,100046.80
2018-09-03T19:43:46.193Z,100047.58
2018-09-03T19:46:15.259Z,100048.16
2018-09-03T19:48:44.265Z,100042.12
2018-09-03T19:51:13.256Z,100046.42
2018-09-03T19:53:43.756Z,100046.02
2018-09-03T19:56:13.335Z,100043.52
2018-09-03T19:58:42.513Z,100040.41
2018-09-03T20:01:11.485Z,100042.03
2018-09-03T20:03:40.471Z,100039.34
2018-09-03T20:06:09.480Z,100046.61
2018-09-03T20:08:38.584Z,100039.39
2018-09-03T20:11:07.809Z,100037.58
2018-09-03T20:13:36.786Z,100042.00
2018-09-03T20:16:06.089Z,100035.53
2018-09-03T20:18:35.169Z,100042.56
2018-09-03T20:21:04.265Z,100030.58
2018-09-03T20:23:33.626Z,100024.36
2018-09-03T20:26:02.920Z,100023.17
2018-09-03T20:28:32.182Z,100013.59
2018-09-03T20:31:01.359Z,100022.22
2018-09-03T20:33:30.409Z,100018.39
2018-09-03T20:35:59.534Z,100019.42
2018-09-03T20:38:28.611Z,100017.86
2018-09-03T20:40:57.765Z,100010.94
2018-09-03T20:43:26.726Z,100014.90
2018-09-03T20:45:55.749Z,100016.95
2018-09-03T20:48:24.822Z,100010.80
2018-09-03T20:50:53.856Z,100014.31
2018-09-03T20:53:22.797Z,100013.53
2018-09-03T20:55:51.775Z,100006.06
2018-09-03T20:58:20.735Z,100010.82
2018-09-03T21:00:49.690Z,100003.93
2018-09-03T21:03:18.679Z,100005.88
2018-09-03T21:05:47.671Z,99998.53
2018-09-03T21:08:16.722Z,100002.53
2018-09-03T21:10:45.689Z,99996.61
2018-09-03T21:13:14.629Z,99997.75
2018-09-03T21:15:43.585Z,100001.59
2018-09-03T21:18:12.580Z,100009.42
2018-09-03T21:20:41.762Z,100009.51
2018-09-03T21:23:10.729Z,100009.66
2018-09-03T21:25:39.826Z,100007.96
2018-09-03T21:28:08.797Z,100003.42
2018-09-03T21:30:37.815Z,100003.57
2018-09-03T21:33:06.832Z,100003.34
2018-09-03T21:35:35.852Z,100003.11
2018-09-03T21:38:04.826Z,100007.75
2018-09-03T21:40:34.023Z,100001.53
2018-09-03T21:43:03.117Z,100010.59
2018-09-03T21:45:32.098Z,100009.45
2018-09-03T21:48:01.032Z,100014.77
2018-09-03T21:50:30.193Z,100011.38
2018-09-03T21:52:59.176Z,100004.23
2018-09-03T21:55:28.261Z,100005.95
2018-09-03T21:57:57.257Z,100010.91
2018-09-03T22:00:26.253Z,100013.41
2018-09-03T22:02:55.425Z,100009.23
2018-09-03T22:05:27.219Z,100002.31
2018-09-03T22:07:56.293Z,100008.78
2018-09-03T22:10:25.271Z,100010.70
2018-09-03T22:12:54.313Z,100007.30
2018-09-03T22:15:23.679Z,100004.57
2018-09-03T22:17:52.971Z,99999.37
2018-09-03T22:20:22.013Z,99997.34
2018-09-03T22:22:51.006Z,99995.52
2018-09-03T22:25:20.063Z,99993.36
2018-09-03T22:27:49.173Z,99998.80
2018-09-03T22:30:18.258Z,99997.31
2018-09-03T22:32:48.871Z,99997.84
2018-09-03T22:35:17.879Z,100004.50
2018-09-03T22:37:46.944Z,100008.11
2018-09-03T22:40:15.906Z,100008.05
2018-09-03T22:42:44.842Z,100010.63
2018-09-03T22:45:13.773Z,100010.72
2018-09-03T22:47:42.829Z,100012.61
2018-09-03T22:50:11.825Z,100008.75
2018-09-03T22:52:41.382Z,100014.93
2018-09-03T22:55:10.340Z,100009.49
2018-09-03T22:57:40.352Z,100008.34
2018-09-03T23:00:09.281Z,100009.07
2018-09-03T23:02:45.981Z,100009.31
2018-09-03T23:05:14.923Z,100011.12
2018-09-03T23:07:43.885Z,100012.17
2018-09-03T23:10:12.857Z,100010.11
2018-09-03T23:12:41.919Z,99999.69
2018-09-03T23:15:11.041Z,99999.88
2018-09-03T23:17:40.046Z,100001.43
2018-09-03T23:20:08.989Z,99998.56
2018-09-03T23:22:37.953Z,100003.14
2018-09-03T23:25:06.935Z,100002.20
2018-09-03T23:27:35.882Z,99996.19
2018-09-03T23:30:04.897Z,99995.81
2018-09-03T23:32:33.850Z,99990.96
2018-09-03T23:35:02.793Z,99993.80
2018-09-03T23:37:31.731Z,99989.88
2018-09-03T23:40:00.661Z,99988.44
2018-09-03T23:42:29.660Z,99985.82
2018-09-03T23:44:58.605Z,99984.56
2018-09-03T23:47:27.555Z,99982.17
2018-09-03T23:49:56.523Z,99978.08
2018-09-03T23:52:25.529Z,99978.39
2018-09-03T23:54:54.470Z,99984.79
2018-09-03T23:57:23.428Z,99979.47
2018-09-03T23:59:52.383Z,99972.00
